Estación de Las Viñas
Ultimos registro cada 15 minutos 28
| N° | Estación | Fecha / Hora | Temperatura | Humedad | Lluvia | Velocidad | Dirección | Radiación | Presion |
| 28 | Las Viñas | 06-09-2026 06:45 | 2,2 | 69 | 0 | 0 | 180 | 0 | 1016 |
| 27 | Las Viñas | 06-09-2026 06:30 | 2,4 | 68 | 0 | 0 | 180 | 0 | 1015,9 |
| 26 | Las Viñas | 06-09-2026 06:15 | 2,6 | 66 | 0 | 0,4 | 166 | 0 | 1016 |
| 25 | Las Viñas | 06-09-2026 06:00 | 2,6 | 66 | 0 | 0,4 | 155 | 0 | 1016,2 |
| 24 | Las Viñas | 06-09-2026 05:45 | 2,7 | 66 | 0 | 0 | 200 | 0 | 1016,2 |
| 23 | Las Viñas | 06-09-2026 05:30 | 2,9 | 65 | 0 | 0 | 203 | 0 | 1016,4 |
| 22 | Las Viñas | 06-09-2026 05:15 | 3 | 65 | 0 | 0 | 202 | 0 | 1016,4 |
| 21 | Las Viñas | 06-09-2026 05:00 | 2,8 | 66 | 0 | 0 | 164 | 0 | 1016,5 |
| 20 | Las Viñas | 06-09-2026 04:45 | 2,9 | 66 | 0 | 0 | 201 | 0 | 1016,6 |
| 19 | Las Viñas | 06-09-2026 04:30 | 2,8 | 66 | 0 | 0,4 | 193 | 0 | 1016,6 |
| 18 | Las Viñas | 06-09-2026 04:15 | 2,8 | 66 | 0 | 0 | 193 | 0 | 1016,8 |
| 17 | Las Viñas | 06-09-2026 04:00 | 2,9 | 66 | 0 | 0,4 | 193 | 0 | 1016,9 |
| 16 | Las Viñas | 06-09-2026 03:45 | 2,9 | 66 | 0 | 0,4 | 190 | 0 | 1017 |
| 15 | Las Viñas | 06-09-2026 03:30 | 3,1 | 66 | 0 | 0 | 158 | 0 | 1017,2 |
| 14 | Las Viñas | 06-09-2026 03:15 | 3,3 | 65 | 0 | 0 | 175 | 0 | 1017,2 |
| 13 | Las Viñas | 06-09-2026 03:00 | 3,4 | 65 | 0 | 0 | 175 | 0 | 1017,5 |
| 12 | Las Viñas | 06-09-2026 02:45 | 3,7 | 64 | 0 | 0 | 189 | 0 | 1017,7 |
| 11 | Las Viñas | 06-09-2026 02:30 | 3,7 | 64 | 0 | 0 | 175 | 0 | 1018 |
| 10 | Las Viñas | 06-09-2026 02:15 | 3,7 | 64 | 0 | 0 | 141 | 0 | 1018,1 |
| 9 | Las Viñas | 06-09-2026 02:00 | 3,8 | 63 | 0 | 0 | 153 | 0 | 1018,2 |
| 8 | Las Viñas | 06-09-2026 01:45 | 3,7 | 64 | 0 | 0 | 168 | 0 | 1018,5 |
| 7 | Las Viñas | 06-09-2026 01:30 | 3,8 | 64 | 0 | 0 | 168 | 0 | 1018,5 |
| 6 | Las Viñas | 06-09-2026 01:15 | 3,8 | 64 | 0 | 0 | 180 | 0 | 1018,7 |
| 5 | Las Viñas | 06-09-2026 01:00 | 3,9 | 64 | 0 | 0 | 175 | 0 | 1019 |
| 4 | Las Viñas | 06-09-2026 00:45 | 4,3 | 62 | 0 | 0 | 167 | 0 | 1019,1 |
| 3 | Las Viñas | 06-09-2026 00:30 | 4,7 | 61 | 0 | 0 | 167 | 0 | 1019,2 |
| 2 | Las Viñas | 06-09-2026 00:15 | 5,2 | 58 | 0 | 0 | 164 | 0 | 1019,3 |
| 1 | Las Viñas | 06-09-2026 00:00 | 6,1 | 55 | 0 | 0 | 164 | 0 | 1019,4 |